createdAt,value
2023-02-06T00:02:26.869Z,103094.00
2023-02-06T00:05:28.750Z,103088.91
2023-02-06T00:08:30.476Z,103088.06
2023-02-06T00:11:32.344Z,103094.88
2023-02-06T00:14:34.253Z,103089.75
2023-02-06T00:17:37.049Z,103088.91
2023-02-06T00:20:38.983Z,103085.50
2023-02-06T00:23:41.128Z,103086.38
2023-02-06T00:26:43.064Z,103081.25
2023-02-06T00:29:44.862Z,103078.69
2023-02-06T00:32:46.612Z,103089.75
2023-02-06T00:35:48.418Z,103077.84
2023-02-06T00:38:50.286Z,103080.41
2023-02-06T00:41:51.948Z,103065.97
2023-02-06T00:44:53.685Z,103073.63
2023-02-06T00:47:55.284Z,103071.91
2023-02-06T00:50:57.085Z,103074.47
2023-02-06T00:53:58.734Z,103072.75
2023-02-06T00:57:00.410Z,103069.34
2023-02-06T01:00:04.217Z,103065.09
2023-02-06T01:03:05.918Z,103070.22
2023-02-06T01:06:07.739Z,103069.34
2023-02-06T01:09:09.368Z,103077.00
2023-02-06T01:12:11.003Z,103077.84
2023-02-06T01:15:13.949Z,103084.66
2023-02-06T01:18:15.745Z,103079.56
2023-02-06T01:21:20.798Z,103086.38
2023-02-06T01:24:22.741Z,103093.16
2023-02-06T01:27:24.523Z,103099.13
2023-02-06T01:30:26.322Z,103097.41
2023-02-06T01:33:28.084Z,103088.06
2023-02-06T01:36:29.939Z,103082.94
2023-02-06T01:39:31.766Z,103077.00
2023-02-06T01:42:40.004Z,103082.94
2023-02-06T01:45:44.090Z,103077.03
2023-02-06T01:48:53.674Z,103077.00
2023-02-06T01:52:31.157Z,103083.81
2023-02-06T01:55:35.449Z,103074.47
2023-02-06T01:58:44.558Z,103073.59
2023-02-06T02:01:46.400Z,103079.56
2023-02-06T02:04:48.488Z,103076.13
2023-02-06T02:08:06.270Z,103077.84
2023-02-06T02:11:12.274Z,103084.69
2023-02-06T02:14:16.505Z,103088.06
2023-02-06T02:17:35.007Z,103091.47
2023-02-06T02:21:11.280Z,103089.78
2023-02-06T02:24:15.459Z,103088.06
2023-02-06T02:27:35.081Z,103094.00
2023-02-06T02:31:08.445Z,103092.34
2023-02-06T02:34:49.273Z,103112.72
2023-02-06T02:38:26.234Z,103110.16
2023-02-06T02:41:55.665Z,103111.88
2023-02-06T02:45:06.331Z,103105.91
2023-02-06T02:48:29.841Z,103088.03
2023-02-06T02:51:33.890Z,103089.72
2023-02-06T02:54:35.876Z,103090.56
2023-02-06T02:57:37.855Z,103083.78
2023-02-06T03:01:08.106Z,103088.00
2023-02-06T03:04:23.075Z,103083.72
2023-02-06T03:07:30.678Z,103096.47
2023-02-06T03:10:58.603Z,103104.16
2023-02-06T03:14:15.620Z,103103.28
2023-02-06T03:17:24.674Z,103111.78
2023-02-06T03:20:27.941Z,103097.28
2023-02-06T03:23:33.204Z,103105.75
2023-02-06T03:26:37.230Z,103095.53
2023-02-06T03:29:42.684Z,103093.81
2023-02-06T03:32:50.196Z,103096.34
2023-02-06T03:35:52.558Z,103096.28
2023-02-06T03:38:54.698Z,103086.97
2023-02-06T03:41:59.738Z,103092.94
2023-02-06T03:45:07.770Z,103101.44
2023-02-06T03:48:19.094Z,103086.97
2023-02-06T03:51:49.659Z,103083.56
2023-02-06T03:55:02.382Z,103088.59
2023-02-06T03:58:12.508Z,103084.34
2023-02-06T04:01:14.751Z,103080.06
2023-02-06T04:04:25.017Z,103074.13
2023-02-06T04:07:29.829Z,103078.38
2023-02-06T04:10:31.666Z,103072.41
2023-02-06T04:13:33.462Z,103058.81
2023-02-06T04:16:35.254Z,103062.22
2023-02-06T04:19:37.226Z,103055.41
2023-02-06T04:22:40.035Z,103048.59
2023-02-06T04:25:41.802Z,103046.91
2023-02-06T04:28:43.546Z,103052.84
2023-02-06T04:31:45.219Z,103053.72
2023-02-06T04:34:46.845Z,103054.59
2023-02-06T04:37:48.560Z,103054.50
2023-02-06T04:40:50.304Z,103051.09
2023-02-06T04:43:52.130Z,103044.31
2023-02-06T04:46:54.062Z,103039.22
2023-02-06T04:49:55.759Z,103041.75
2023-02-06T04:52:58.317Z,103034.09
2023-02-06T04:56:11.903Z,103050.22
2023-02-06T04:59:14.057Z,103047.59
2023-02-06T05:02:15.759Z,103034.84
2023-02-06T05:05:17.565Z,103034.81
2023-02-06T05:08:19.772Z,103039.03
2023-02-06T05:11:21.645Z,103043.19
2023-02-06T05:14:23.357Z,103045.81
2023-02-06T05:17:25.116Z,103050.00
2023-02-06T05:20:26.934Z,103050.81
2023-02-06T05:23:28.565Z,103040.63
2023-02-06T05:26:30.287Z,103044.00
2023-02-06T05:29:31.868Z,103044.78
2023-02-06T05:32:33.539Z,103048.16
2023-02-06T05:35:35.621Z,103056.63
2023-02-06T05:38:37.409Z,103049.84
2023-02-06T05:41:38.876Z,103050.66
2023-02-06T05:44:40.843Z,103064.22
2023-02-06T05:47:42.750Z,103069.25
2023-02-06T05:50:45.086Z,103072.69
2023-02-06T05:53:50.211Z,103070.06
2023-02-06T05:56:51.884Z,103070.09
2023-02-06T05:59:53.676Z,103074.34
2023-02-06T06:02:55.434Z,103076.91
2023-02-06T06:05:57.133Z,103077.75
2023-02-06T06:09:01.327Z,103074.25
2023-02-06T06:12:03.177Z,103073.47
2023-02-06T06:15:05.439Z,103076.81
2023-02-06T06:18:07.412Z,103084.44
2023-02-06T06:21:10.692Z,103082.75
2023-02-06T06:24:12.480Z,103072.63
2023-02-06T06:27:14.273Z,103086.97
2023-02-06T06:30:16.120Z,103082.72
2023-02-06T06:33:17.836Z,103082.75
2023-02-06T06:36:19.993Z,103086.16
2023-02-06T06:39:21.916Z,103093.81
2023-02-06T06:42:23.565Z,103109.97
2023-02-06T06:45:26.427Z,103115.09
2023-02-06T06:48:28.805Z,103112.59
2023-02-06T06:51:30.647Z,103131.28
2023-02-06T06:54:32.527Z,103139.00
2023-02-06T06:57:34.300Z,103136.44
2023-02-06T07:00:38.206Z,103132.28
2023-02-06T07:03:44.198Z,103124.69
2023-02-06T07:06:46.095Z,103130.69
2023-02-06T07:09:47.952Z,103134.13
2023-02-06T07:12:49.854Z,103124.78
2023-02-06T07:15:51.620Z,103125.66
2023-02-06T07:18:53.209Z,103121.41
2023-02-06T07:21:54.791Z,103131.66
2023-02-06T07:24:56.730Z,103137.59
2023-02-06T07:27:59.100Z,103146.09
2023-02-06T07:31:08.139Z,103158.06
2023-02-06T07:34:10.046Z,103154.66
2023-02-06T07:37:11.999Z,103157.25
2023-02-06T07:40:13.692Z,103147.13
2023-02-06T07:43:15.575Z,103143.72
2023-02-06T07:46:17.358Z,103136.13
2023-02-06T07:49:19.205Z,103147.16
2023-02-06T07:52:22.351Z,103146.34
2023-02-06T07:55:24.250Z,103146.34
2023-02-06T07:58:26.367Z,103149.78
2023-02-06T08:01:28.705Z,103151.44
2023-02-06T08:04:35.281Z,103147.25
2023-02-06T08:07:37.080Z,103131.16
2023-02-06T08:10:39.888Z,103138.78
2023-02-06T08:13:42.878Z,103132.00
2023-02-06T08:16:44.688Z,103130.34
2023-02-06T08:19:46.350Z,103132.91
2023-02-06T08:22:48.192Z,103127.84
2023-02-06T08:25:49.899Z,103121.94
2023-02-06T08:28:52.306Z,103121.94
2023-02-06T08:31:54.344Z,103126.25
2023-02-06T08:34:56.132Z,103120.31
2023-02-06T08:38:00.832Z,103116.09
2023-02-06T08:41:03.189Z,103111.03
2023-02-06T08:44:14.804Z,103105.94
2023-02-06T08:47:16.509Z,103108.47
2023-02-06T08:50:18.275Z,103105.09
2023-02-06T08:53:20.309Z,103094.88
2023-02-06T08:56:22.268Z,103090.63
2023-02-06T08:59:24.608Z,103088.94
2023-02-06T09:02:26.436Z,103088.91
2023-02-06T09:05:28.524Z,103089.75
2023-02-06T09:08:31.014Z,103086.31
2023-02-06T09:11:33.585Z,103077.81
2023-02-06T09:14:35.400Z,103065.94
2023-02-06T09:17:37.179Z,103066.78
2023-02-06T09:20:38.912Z,103072.72
2023-02-06T09:23:49.818Z,103067.59
2023-02-06T09:26:59.792Z,103073.50
2023-02-06T09:30:02.709Z,103069.13
2023-02-06T09:33:04.356Z,103058.81
2023-02-06T09:36:12.881Z,103068.94
2023-02-06T09:39:14.721Z,103059.50
2023-02-06T09:42:26.202Z,103058.63
2023-02-06T09:45:29.508Z,103060.47
2023-02-06T09:48:34.884Z,103047.72
2023-02-06T09:51:57.210Z,103050.28
2023-02-06T09:55:18.079Z,103047.75
2023-02-06T09:58:26.972Z,103052.75
2023-02-06T10:01:58.015Z,103043.28
2023-02-06T10:05:05.891Z,103049.22
2023-02-06T10:08:34.288Z,103057.56
2023-02-06T10:12:07.601Z,103054.94
2023-02-06T10:15:17.285Z,103058.31
2023-02-06T10:18:30.822Z,103059.06
2023-02-06T10:21:47.989Z,103054.75
2023-02-06T10:25:11.322Z,103048.88
2023-02-06T10:28:26.163Z,103050.69
2023-02-06T10:31:52.652Z,103043.03
2023-02-06T10:35:20.352Z,103038.75
2023-02-06T10:38:36.176Z,103043.72
2023-02-06T10:41:58.414Z,103042.94
2023-02-06T10:45:19.686Z,103033.63
2023-02-06T10:48:38.333Z,103030.94
2023-02-06T10:51:44.348Z,103039.50
2023-02-06T10:54:56.102Z,103024.16
2023-02-06T10:58:16.228Z,103022.41
2023-02-06T11:01:26.089Z,103030.06
2023-02-06T11:04:43.931Z,103023.22
2023-02-06T11:07:50.958Z,103017.25
2023-02-06T11:10:52.795Z,103013.88
2023-02-06T11:14:00.188Z,103002.06
2023-02-06T11:17:02.666Z,103003.00
2023-02-06T11:20:26.660Z,103019.97
2023-02-06T11:23:31.188Z,103007.03
2023-02-06T11:26:33.014Z,103015.44
2023-02-06T11:29:43.693Z,103017.13
2023-02-06T11:33:02.538Z,103032.38
2023-02-06T11:36:07.665Z,103020.47
2023-02-06T11:39:35.654Z,103014.44
2023-02-06T11:42:38.058Z,103009.19
2023-02-06T11:45:41.134Z,103017.81
2023-02-06T11:48:44.499Z,103028.97
2023-02-06T11:51:59.751Z,103027.28
2023-02-06T11:55:02.795Z,103022.94
2023-02-06T11:58:13.984Z,103012.38
2023-02-06T12:01:21.397Z,103020.75
2023-02-06T12:04:31.777Z,103016.41
2023-02-06T12:07:43.194Z,103019.16
2023-02-06T12:11:04.243Z,103021.69
2023-02-06T12:14:22.183Z,103023.41
2023-02-06T12:17:35.587Z,103027.00
2023-02-06T12:20:54.542Z,103015.00
2023-02-06T12:24:11.190Z,103028.91
2023-02-06T12:27:21.095Z,103024.47
2023-02-06T12:30:31.916Z,103019.25
2023-02-06T12:33:48.441Z,103031.38
2023-02-06T12:37:14.089Z,103027.78
2023-02-06T12:40:38.393Z,103029.69
2023-02-06T12:43:44.602Z,103021.34
2023-02-06T12:46:52.101Z,103031.63
2023-02-06T12:50:22.957Z,103022.28
2023-02-06T12:53:57.227Z,103019.84
2023-02-06T12:57:29.208Z,103021.38
2023-02-06T13:00:48.993Z,103021.25
2023-02-06T13:04:11.129Z,103016.16
2023-02-06T13:07:16.293Z,103019.63
2023-02-06T13:10:25.555Z,103013.84
2023-02-06T13:13:31.061Z,103012.28
2023-02-06T13:16:49.212Z,103018.19
2023-02-06T13:20:05.013Z,103016.38
2023-02-06T13:23:12.804Z,103020.31
2023-02-06T13:26:17.420Z,103009.00
2023-02-06T13:29:28.248Z,103010.88
2023-02-06T13:32:31.939Z,103020.66
2023-02-06T13:35:33.650Z,103013.38
2023-02-06T13:38:35.305Z,103007.63
2023-02-06T13:41:37.596Z,103019.63
2023-02-06T13:44:40.880Z,103014.41
2023-02-06T13:48:13.217Z,103012.59
2023-02-06T13:51:33.789Z,103017.66
2023-02-06T13:55:34.918Z,103012.69
2023-02-06T13:58:41.257Z,103016.19
2023-02-06T14:01:44.019Z,103022.16
2023-02-06T14:04:49.683Z,103026.41
2023-02-06T14:07:57.202Z,103034.03
2023-02-06T14:11:41.725Z,103023.63
2023-02-06T14:14:58.938Z,103020.94
2023-02-06T14:18:16.114Z,103025.81
2023-02-06T14:21:47.388Z,103032.38
2023-02-06T14:25:11.323Z,103035.69
2023-02-06T14:28:22.587Z,103031.19
2023-02-06T14:31:36.476Z,103025.03
2023-02-06T14:35:06.137Z,103027.56
2023-02-06T14:38:45.498Z,103020.53
2023-02-06T14:41:47.524Z,103011.91
2023-02-06T14:44:57.312Z,103013.94
2023-02-06T14:48:02.797Z,103015.94
2023-02-06T14:51:06.014Z,103016.28
2023-02-06T14:54:29.473Z,103010.63
2023-02-06T14:57:32.286Z,103015.13
2023-02-06T15:00:34.164Z,103019.59
2023-02-06T15:03:36.980Z,103030.81
2023-02-06T15:06:41.963Z,103021.50
2023-02-06T15:09:46.673Z,103029.22
2023-02-06T15:12:55.018Z,103031.81
2023-02-06T15:15:57.579Z,103038.66
2023-02-06T15:19:25.206Z,103046.31
2023-02-06T15:22:30.037Z,103049.72
2023-02-06T15:25:40.548Z,103054.84
2023-02-06T15:28:44.081Z,103048.94
2023-02-06T15:31:51.252Z,103053.16
2023-02-06T15:34:53.422Z,103050.63
2023-02-06T15:37:57.850Z,103049.78
2023-02-06T15:41:07.319Z,103062.53
2023-02-06T15:44:12.188Z,103072.72
2023-02-06T15:47:16.774Z,103065.06
2023-02-06T15:50:20.926Z,103069.28
2023-02-06T15:53:40.169Z,103058.19
2023-02-06T15:56:43.284Z,103069.19
2023-02-06T15:59:45.642Z,103066.59
2023-02-06T16:02:47.536Z,103079.31
2023-02-06T16:05:50.965Z,103087.72
2023-02-06T16:08:56.408Z,103099.56
2023-02-06T16:11:58.485Z,103087.63
2023-02-06T16:15:03.126Z,103096.88
2023-02-06T16:18:30.803Z,103092.56
2023-02-06T16:21:41.148Z,103097.56
2023-02-06T16:24:43.747Z,103089.88
2023-02-06T16:27:46.495Z,103090.66
2023-02-06T16:31:05.545Z,103088.06
2023-02-06T16:34:40.647Z,103086.25
2023-02-06T16:37:42.357Z,103079.41
2023-02-06T16:40:44.067Z,103094.59
2023-02-06T16:43:45.762Z,103086.91
2023-02-06T16:46:48.111Z,103084.31
2023-02-06T16:49:51.159Z,103095.31
2023-02-06T16:52:55.888Z,103098.63
2023-02-06T16:55:58.171Z,103107.88
2023-02-06T16:59:00.259Z,103117.94
2023-02-06T17:02:02.115Z,103122.16
2023-02-06T17:05:05.456Z,103122.09
2023-02-06T17:08:24.759Z,103128.00
2023-02-06T17:11:28.199Z,103127.09
2023-02-06T17:14:29.835Z,103126.25
2023-02-06T17:17:31.722Z,103122.00
2023-02-06T17:20:39.498Z,103117.72
2023-02-06T17:23:42.838Z,103120.22
2023-02-06T17:26:44.537Z,103119.38
2023-02-06T17:29:47.609Z,103121.03
2023-02-06T17:32:50.096Z,103124.38
2023-02-06T17:35:52.295Z,103120.97
2023-02-06T17:38:54.085Z,103146.34
2023-02-06T17:41:55.959Z,103142.06
2023-02-06T17:44:57.573Z,103140.38
2023-02-06T17:47:59.778Z,103146.34
2023-02-06T17:51:02.147Z,103138.75
2023-02-06T17:54:06.488Z,103142.16
2023-02-06T17:57:08.586Z,103148.09
2023-02-06T18:00:14.791Z,103137.06
2023-02-06T18:03:18.416Z,103143.13
2023-02-06T18:06:20.790Z,103148.44
2023-02-06T18:09:22.428Z,103148.56
2023-02-06T18:12:24.731Z,103149.47
2023-02-06T18:15:26.525Z,103145.34
2023-02-06T18:18:28.330Z,103141.97
2023-02-06T18:21:31.493Z,103141.09
2023-02-06T18:24:33.276Z,103137.69
2023-02-06T18:27:36.952Z,103145.38
2023-02-06T18:30:38.901Z,103132.69
2023-02-06T18:33:41.174Z,103136.06
2023-02-06T18:36:42.938Z,103141.88
2023-02-06T18:39:44.748Z,103145.16
2023-02-06T18:42:55.527Z,103139.13
2023-02-06T18:45:59.010Z,103150.06
2023-02-06T18:49:00.976Z,103144.06
2023-02-06T18:52:04.279Z,103150.81
2023-02-06T18:55:08.093Z,103156.84
2023-02-06T18:58:10.817Z,103150.25
2023-02-06T19:01:21.137Z,103157.97
2023-02-06T19:04:22.903Z,103146.22
2023-02-06T19:07:25.542Z,103155.50
2023-02-06T19:10:27.284Z,103158.81
2023-02-06T19:13:29.034Z,103160.44
2023-02-06T19:16:32.968Z,103145.03
2023-02-06T19:19:34.622Z,103139.78
2023-02-06T19:22:38.765Z,103139.69
2023-02-06T19:25:41.158Z,103143.75
2023-02-06T19:28:43.701Z,103134.34
2023-02-06T19:31:45.379Z,103135.13
2023-02-06T19:34:47.220Z,103125.75
2023-02-06T19:37:51.645Z,103123.13
2023-02-06T19:40:54.292Z,103125.56
2023-02-06T19:44:02.192Z,103127.28
2023-02-06T19:47:04.604Z,103123.03
2023-02-06T19:50:07.843Z,103123.84
2023-02-06T19:53:09.884Z,103123.81
2023-02-06T19:56:14.064Z,103129.66
2023-02-06T19:59:24.991Z,103132.19
2023-02-06T20:02:26.612Z,103130.47
2023-02-06T20:05:28.402Z,103125.31
2023-02-06T20:08:30.528Z,103126.13
2023-02-06T20:11:33.643Z,103126.13
2023-02-06T20:14:35.434Z,103128.63
2023-02-06T20:17:37.099Z,103127.75
2023-02-06T20:20:39.404Z,103132.81
2023-02-06T20:23:41.791Z,103137.03
2023-02-06T20:26:43.528Z,103133.59
2023-02-06T20:29:49.705Z,103142.03
2023-02-06T20:32:51.873Z,103132.69
2023-02-06T20:35:53.587Z,103141.16
2023-02-06T20:38:58.605Z,103139.38
2023-02-06T20:42:02.832Z,103147.00
2023-02-06T20:45:04.599Z,103156.34
2023-02-06T20:48:06.218Z,103153.66
2023-02-06T20:51:07.984Z,103157.78
2023-02-06T20:54:11.579Z,103145.91
2023-02-06T20:57:15.487Z,103146.72
2023-02-06T21:00:20.550Z,103151.84
2023-02-06T21:03:23.212Z,103154.28
2023-02-06T21:06:25.815Z,103155.94
2023-02-06T21:09:28.056Z,103155.88
2023-02-06T21:12:29.652Z,103155.00
2023-02-06T21:15:31.264Z,103144.84
2023-02-06T21:18:33.677Z,103150.72
2023-02-06T21:21:37.298Z,103149.00
2023-02-06T21:24:39.014Z,103146.53
2023-02-06T21:27:40.643Z,103143.25
2023-02-06T21:30:42.325Z,103147.47
2023-02-06T21:33:46.401Z,103152.50
2023-02-06T21:36:49.469Z,103157.53
2023-02-06T21:39:51.182Z,103161.84
2023-02-06T21:42:52.805Z,103155.03
2023-02-06T21:45:56.956Z,103161.72
2023-02-06T21:48:59.462Z,103148.28
2023-02-06T21:52:02.126Z,103150.00
2023-02-06T21:55:07.437Z,103152.56
2023-02-06T21:58:09.984Z,103150.84
2023-02-06T22:01:16.902Z,103144.94
2023-02-06T22:04:21.657Z,103139.88
2023-02-06T22:07:23.306Z,103153.34
2023-02-06T22:10:25.180Z,103160.91
2023-02-06T22:13:29.530Z,103168.44
2023-02-06T22:16:32.433Z,103158.34
2023-02-06T22:19:35.097Z,103163.28
2023-02-06T22:22:38.611Z,103175.91
2023-02-06T22:25:47.698Z,103185.16
2023-02-06T22:28:49.611Z,103193.56
2023-02-06T22:31:51.464Z,103199.47
2023-02-06T22:34:53.975Z,103202.03
2023-02-06T22:37:56.416Z,103202.00
2023-02-06T22:41:00.154Z,103210.34
2023-02-06T22:44:02.079Z,103210.41
2023-02-06T22:47:04.113Z,103211.28
2023-02-06T22:50:06.076Z,103217.16
2023-02-06T22:53:29.530Z,103224.75
2023-02-06T22:56:35.937Z,103233.25
2023-02-06T22:59:37.908Z,103234.13
2023-02-06T23:02:39.747Z,103241.75
2023-02-06T23:05:41.581Z,103245.94
2023-02-06T23:08:43.836Z,103240.84
2023-02-06T23:11:45.569Z,103234.97
2023-02-06T23:14:47.347Z,103235.81
2023-02-06T23:17:50.120Z,103234.03
2023-02-06T23:21:03.779Z,103240.75
2023-02-06T23:24:07.602Z,103237.31
2023-02-06T23:27:09.381Z,103240.69
2023-02-06T23:30:11.983Z,103235.53
2023-02-06T23:33:14.513Z,103239.72
2023-02-06T23:36:18.770Z,103238.84
2023-02-06T23:39:21.182Z,103236.28
2023-02-06T23:42:23.080Z,103237.06
2023-02-06T23:45:24.921Z,103236.16
2023-02-06T23:48:26.550Z,103235.28
2023-02-06T23:51:31.703Z,103244.53
2023-02-06T23:54:33.352Z,103254.75
2023-02-06T23:57:36.532Z,103252.09
